createdAt,value
2023-08-22T07:31:05.145Z,101433.69
2023-08-22T07:33:31.621Z,101436.34
2023-08-22T07:35:58.417Z,101428.38
2023-08-22T07:38:24.892Z,101402.50
2023-08-22T07:40:51.329Z,101397.97
2023-08-22T07:43:17.724Z,101408.56
2023-08-22T07:45:44.161Z,101400.34
2023-08-22T07:48:10.975Z,101389.44
2023-08-22T07:50:37.594Z,101394.06
2023-08-22T07:53:05.748Z,101392.88
2023-08-22T07:55:32.300Z,101392.28
2023-08-22T07:57:58.712Z,101387.75
2023-08-22T08:00:25.108Z,101392.88
2023-08-22T08:02:51.588Z,101398.19
2023-08-22T08:05:19.028Z,101408.41
2023-08-22T08:07:46.289Z,101421.00
2023-08-22T08:10:12.811Z,101420.97
2023-08-22T08:12:39.266Z,101416.34
2023-08-22T08:15:06.133Z,101413.72
2023-08-22T08:17:32.616Z,101405.66
2023-08-22T08:19:59.098Z,101405.47
2023-08-22T08:22:25.579Z,101415.13
2023-08-22T08:24:52.087Z,101415.41
2023-08-22T08:27:18.492Z,101407.09
2023-08-22T08:29:44.955Z,101407.78
2023-08-22T08:32:11.813Z,101393.75
2023-08-22T08:34:38.294Z,101390.69
2023-08-22T08:37:05.350Z,101403.78
2023-08-22T08:39:31.850Z,101395.91
2023-08-22T08:42:09.344Z,101404.69
2023-08-22T08:44:38.716Z,101388.78
2023-08-22T08:47:07.155Z,101382.84
2023-08-22T08:49:37.409Z,101395.47
2023-08-22T08:52:09.718Z,101384.91
2023-08-22T08:54:36.856Z,101372.34
2023-08-22T08:57:06.210Z,101385.94
2023-08-22T08:59:33.032Z,101385.72
2023-08-22T09:02:01.077Z,101371.97
2023-08-22T09:04:27.691Z,101367.91
2023-08-22T09:06:54.102Z,101369.03
2023-08-22T09:09:21.997Z,101356.34
2023-08-22T09:11:51.483Z,101362.88
2023-08-22T09:14:22.070Z,101360.19
2023-08-22T09:16:51.485Z,101360.41
2023-08-22T09:19:17.943Z,101359.13
2023-08-22T09:21:58.490Z,101354.84
2023-08-22T09:24:25.835Z,101349.63
2023-08-22T09:26:52.287Z,101356.84
2023-08-22T09:29:36.061Z,101348.28
2023-08-22T09:32:02.551Z,101346.13
2023-08-22T09:34:29.531Z,101350.16
2023-08-22T09:36:55.929Z,101345.66
2023-08-22T09:39:23.734Z,101340.63
2023-08-22T09:41:54.237Z,101328.03
2023-08-22T09:44:28.336Z,101334.97
2023-08-22T09:46:56.557Z,101342.63
2023-08-22T09:49:23.843Z,101339.31
2023-08-22T09:51:53.615Z,101346.34
2023-08-22T09:54:20.194Z,101341.34
2023-08-22T09:56:46.873Z,101333.25
2023-08-22T09:59:15.413Z,101328.31
2023-08-22T10:01:42.920Z,101331.69
2023-08-22T10:04:10.458Z,101320.50
2023-08-22T10:06:46.356Z,101316.97
2023-08-22T10:09:13.926Z,101329.69
2023-08-22T10:11:47.649Z,101322.84
2023-08-22T10:14:19.826Z,101328.25
2023-08-22T10:16:47.177Z,101328.38
2023-08-22T10:19:13.877Z,101326.38
2023-08-22T10:22:11.020Z,101326.09
2023-08-22T10:24:37.614Z,101322.81
2023-08-22T10:27:05.900Z,101320.72
2023-08-22T10:29:37.768Z,101325.44
2023-08-22T10:32:04.321Z,101325.00
2023-08-22T10:34:39.963Z,101319.69
2023-08-22T10:37:15.276Z,101322.91
2023-08-22T10:39:43.679Z,101327.06
2023-08-22T10:42:26.638Z,101332.66
2023-08-22T10:44:57.148Z,101326.69
2023-08-22T10:47:25.869Z,101330.84
2023-08-22T10:52:27.596Z,101333.22
2023-08-22T10:55:01.281Z,101334.91
2023-08-22T10:57:34.999Z,101335.03
2023-08-22T11:00:01.921Z,101336.78
2023-08-22T11:02:35.952Z,101341.53
2023-08-22T11:05:06.718Z,101340.25
2023-08-22T11:07:33.301Z,101331.13
2023-08-22T11:09:59.714Z,101328.81
2023-08-22T11:12:28.289Z,101328.00
2023-08-22T11:14:56.099Z,101334.25
2023-08-22T11:17:23.303Z,101331.47
2023-08-22T11:19:52.600Z,101335.41
2023-08-22T11:22:19.074Z,101340.63
2023-08-22T11:24:46.963Z,101334.66
2023-08-22T11:27:14.634Z,101338.56
2023-08-22T11:29:43.693Z,101335.72
2023-08-22T11:32:24.184Z,101343.34
2023-08-22T11:34:52.616Z,101346.31
2023-08-22T11:37:20.054Z,101335.94
2023-08-22T11:39:47.914Z,101344.44
2023-08-22T11:42:16.534Z,101349.88
2023-08-22T11:45:04.474Z,101342.66
2023-08-22T11:47:55.309Z,101333.81
2023-08-22T11:50:25.905Z,101328.53
2023-08-22T11:52:57.559Z,101326.91
2023-08-22T11:55:27.047Z,101333.66
2023-08-22T11:58:00.006Z,101332.91
2023-08-22T12:00:28.402Z,101339.53
2023-08-22T12:02:56.788Z,101340.22
2023-08-22T12:05:34.016Z,101338.69
2023-08-22T12:08:15.634Z,101337.66
2023-08-22T12:10:53.063Z,101333.28
2023-08-22T12:13:24.407Z,101327.44
2023-08-22T12:15:52.090Z,101326.16
2023-08-22T12:18:19.216Z,101332.47
2023-08-22T12:20:46.997Z,101325.78
2023-08-22T12:23:15.524Z,101333.63
2023-08-22T12:25:43.186Z,101342.69
2023-08-22T12:28:10.632Z,101345.28
2023-08-22T12:30:38.286Z,101344.38
2023-08-22T12:33:06.210Z,101352.31
2023-08-22T12:35:33.800Z,101347.66
2023-08-22T12:38:01.018Z,101347.97
2023-08-22T12:40:27.930Z,101350.06
2023-08-22T12:42:55.975Z,101351.44
2023-08-22T12:45:23.549Z,101344.97
2023-08-22T12:47:50.899Z,101349.72
2023-08-22T12:50:17.573Z,101344.53
2023-08-22T12:52:44.702Z,101343.69
2023-08-22T12:55:11.350Z,101344.84
2023-08-22T12:57:41.939Z,101336.13
2023-08-22T13:00:10.129Z,101333.00
2023-08-22T13:02:42.780Z,101329.53
2023-08-22T13:05:09.432Z,101333.03
2023-08-22T13:07:36.057Z,101342.22
2023-08-22T13:10:02.609Z,101333.03
2023-08-22T13:12:29.022Z,101335.81
2023-08-22T13:14:55.449Z,101342.56
2023-08-22T13:17:21.902Z,101335.97
2023-08-22T13:19:48.309Z,101340.63
2023-08-22T13:22:15.325Z,101339.31
2023-08-22T13:24:41.727Z,101341.38
2023-08-22T13:27:08.357Z,101339.47
2023-08-22T13:29:34.776Z,101338.72
2023-08-22T13:32:01.193Z,101339.81
2023-08-22T13:34:27.837Z,101337.06
2023-08-22T13:36:54.245Z,101331.06
2023-08-22T13:39:20.649Z,101338.88
2023-08-22T13:41:48.049Z,101330.53
2023-08-22T13:44:14.525Z,101329.34
2023-08-22T13:46:41.553Z,101327.91
2023-08-22T13:49:08.614Z,101330.44
2023-08-22T13:51:35.145Z,101328.88
2023-08-22T13:54:03.796Z,101335.03
2023-08-22T13:56:31.654Z,101338.38
2023-08-22T13:58:58.885Z,101328.38
2023-08-22T14:01:25.596Z,101326.94
2023-08-22T14:03:53.031Z,101339.47
2023-08-22T14:06:19.440Z,101335.72
2023-08-22T14:08:47.924Z,101339.53
2023-08-22T14:11:14.874Z,101345.50
2023-08-22T14:13:43.399Z,101345.06
2023-08-22T14:16:09.879Z,101347.00
2023-08-22T14:18:36.374Z,101343.75
2023-08-22T14:21:02.876Z,101335.53
2023-08-22T14:23:29.312Z,101332.63
2023-08-22T14:25:55.724Z,101351.84
2023-08-22T14:28:22.152Z,101346.09
2023-08-22T14:30:48.584Z,101341.78
2023-08-22T14:33:15.064Z,101351.31
2023-08-22T14:35:42.629Z,101347.97
2023-08-22T14:38:09.052Z,101350.38
2023-08-22T14:40:35.464Z,101344.25
2023-08-22T14:43:01.888Z,101349.75
2023-08-22T14:45:28.418Z,101348.59
2023-08-22T14:47:54.905Z,101347.75
2023-08-22T14:50:21.348Z,101356.94
2023-08-22T14:52:47.773Z,101356.41
2023-08-22T14:55:14.168Z,101358.47
2023-08-22T14:57:40.570Z,101352.84
2023-08-22T15:00:11.191Z,101344.69
2023-08-22T15:02:37.849Z,101354.75
2023-08-22T15:05:04.594Z,101351.44
2023-08-22T15:07:31.001Z,101343.88
2023-08-22T15:09:58.422Z,101359.06
2023-08-22T15:12:25.180Z,101349.34
2023-08-22T15:14:51.615Z,101346.22
2023-08-22T15:17:18.173Z,101340.41
2023-08-22T15:19:44.633Z,101332.41
2023-08-22T15:22:11.182Z,101321.69
2023-08-22T15:24:37.607Z,101331.19
2023-08-22T15:27:04.393Z,101328.66
2023-08-22T15:29:30.826Z,101328.16
2023-08-22T15:31:57.315Z,101333.81
2023-08-22T15:34:25.336Z,101332.31
2023-08-22T15:36:52.004Z,101332.44
2023-08-22T15:39:18.550Z,101347.22
2023-08-22T15:41:44.991Z,101352.91
2023-08-22T15:44:11.496Z,101339.81
2023-08-22T15:46:37.971Z,101331.59
2023-08-22T15:49:04.407Z,101330.75
2023-08-22T15:51:30.838Z,101344.81
2023-08-22T15:53:57.242Z,101337.97
2023-08-22T15:56:24.058Z,101335.72
2023-08-22T15:58:51.275Z,101348.06
2023-08-22T16:01:17.710Z,101348.78
2023-08-22T16:03:44.229Z,101351.41
2023-08-22T16:06:11.866Z,101353.50
2023-08-22T16:08:38.428Z,101333.91
2023-08-22T16:11:04.825Z,101347.09
2023-08-22T16:13:31.250Z,101345.44
2023-08-22T16:15:58.201Z,101343.34
2023-08-22T16:18:24.880Z,101353.75
2023-08-22T16:20:53.291Z,101346.47
2023-08-22T16:23:19.939Z,101343.41
2023-08-22T16:25:46.505Z,101346.19
2023-08-22T16:28:13.006Z,101331.47
2023-08-22T16:30:40.159Z,101328.69
2023-08-22T16:33:06.830Z,101327.03
2023-08-22T16:43:00.692Z,101310.44
2023-08-22T16:45:27.097Z,101312.97
2023-08-22T16:47:53.563Z,101301.19
2023-08-22T16:50:20.655Z,101302.78
2023-08-22T16:52:47.225Z,101304.84
2023-08-22T16:55:13.655Z,101297.78
2023-08-22T16:57:40.376Z,101309.72
2023-08-22T17:00:12.644Z,101310.53
2023-08-22T17:02:39.354Z,101328.63
2023-08-22T17:05:06.922Z,101323.91
2023-08-22T17:07:33.342Z,101332.00
2023-08-22T17:13:46.806Z,101324.53
2023-08-22T17:16:13.317Z,101325.59
2023-08-22T17:18:40.505Z,101329.38
2023-08-22T17:21:15.307Z,101326.94
2023-08-22T17:23:43.208Z,101325.69
2023-08-22T17:26:13.026Z,101328.63
2023-08-22T17:28:40.656Z,101324.16
2023-08-22T17:31:10.921Z,101318.03
2023-08-22T17:33:40.323Z,101312.16
2023-08-22T17:36:09.195Z,101315.69
2023-08-22T17:38:35.982Z,101317.75
2023-08-22T17:41:04.089Z,101311.06
2023-08-22T17:43:31.795Z,101310.88
2023-08-22T17:45:58.594Z,101311.47
2023-08-22T17:48:25.085Z,101316.44
2023-08-22T17:50:52.946Z,101308.47
2023-08-22T17:53:21.056Z,101309.88
2023-08-22T17:55:47.940Z,101312.72
2023-08-22T17:58:14.395Z,101315.53
2023-08-22T18:00:41.642Z,101312.59
2023-08-22T18:03:08.369Z,101315.00
2023-08-22T18:05:34.807Z,101316.50
2023-08-22T18:08:01.224Z,101310.97
2023-08-22T18:10:27.949Z,101317.50
2023-08-22T18:12:54.359Z,101321.28
2023-08-22T18:15:20.787Z,101329.66
2023-08-22T18:17:47.922Z,101333.72
2023-08-22T18:20:14.725Z,101331.63
2023-08-22T18:22:41.191Z,101334.53
2023-08-22T18:25:07.745Z,101335.47
2023-08-22T18:27:34.281Z,101339.19
2023-08-22T18:30:00.738Z,101343.78
2023-08-22T18:32:29.268Z,101353.47
2023-08-22T18:34:55.769Z,101355.16
2023-08-22T18:37:22.232Z,101361.66
2023-08-22T18:39:48.735Z,101355.25
2023-08-22T18:42:15.156Z,101356.97
2023-08-22T18:44:41.605Z,101360.72
2023-08-22T18:47:08.018Z,101367.03
2023-08-22T18:49:34.450Z,101371.50
2023-08-22T18:52:01.054Z,101373.41
2023-08-22T18:54:27.686Z,101375.38
2023-08-22T18:56:54.091Z,101375.28
2023-08-22T18:59:20.585Z,101369.03
2023-08-22T19:01:47.033Z,101368.94
2023-08-22T19:04:13.437Z,101368.06
2023-08-22T19:06:39.843Z,101370.91
2023-08-22T19:09:06.297Z,101363.00
2023-08-22T19:11:32.718Z,101367.50
2023-08-22T19:13:59.131Z,101368.44
2023-08-22T19:16:25.857Z,101367.59
2023-08-22T19:18:52.259Z,101373.09
2023-08-22T19:21:18.764Z,101373.88
2023-08-22T19:23:45.202Z,101374.81
2023-08-22T19:26:11.600Z,101374.97
2023-08-22T19:28:38.032Z,101367.78
2023-08-22T19:31:04.540Z,101366.00
2023-08-22T19:33:31.863Z,101361.44
2023-08-22T19:35:58.388Z,101363.22
2023-08-22T19:38:24.825Z,101364.94
2023-08-22T19:40:52.413Z,101360.47
2023-08-22T19:43:18.844Z,101355.16
2023-08-22T19:45:45.600Z,101359.63
2023-08-22T19:48:12.313Z,101356.16
2023-08-22T19:50:38.824Z,101360.53
2023-08-22T19:53:06.095Z,101364.22
2023-08-22T19:55:32.796Z,101361.63
2023-08-22T19:57:59.240Z,101358.94
2023-08-22T20:00:25.671Z,101360.69
2023-08-22T20:02:52.184Z,101360.66
2023-08-22T20:05:18.961Z,101358.88
2023-08-22T20:07:55.634Z,101367.84
2023-08-22T20:10:22.588Z,101358.09
2023-08-22T20:12:51.888Z,101369.66
2023-08-22T20:15:18.430Z,101375.00
2023-08-22T20:17:46.077Z,101372.34
2023-08-22T20:20:13.002Z,101375.00
2023-08-22T20:22:40.568Z,101381.28
2023-08-22T20:25:07.728Z,101380.38
2023-08-22T20:27:34.138Z,101374.16
2023-08-22T20:30:00.586Z,101382.19
2023-08-22T20:32:27.010Z,101381.28
2023-08-22T20:34:53.890Z,101379.47
2023-08-22T20:37:20.373Z,101393.69
2023-08-22T20:39:46.795Z,101389.25
2023-08-22T20:42:13.374Z,101392.81
2023-08-22T20:44:39.816Z,101383.91
2023-08-22T20:47:06.253Z,101389.28
2023-08-22T20:49:32.702Z,101391.06
2023-08-22T20:51:59.146Z,101395.50
2023-08-22T20:54:28.370Z,101396.41
2023-08-22T20:56:54.838Z,101394.56
2023-08-22T20:59:21.394Z,101400.81
2023-08-22T21:01:47.899Z,101397.22
2023-08-22T21:04:14.331Z,101398.09
2023-08-22T21:06:40.747Z,101401.72
2023-08-22T21:09:07.175Z,101402.56
2023-08-22T21:11:33.585Z,101409.66
2023-08-22T21:14:00.028Z,101406.97
2023-08-22T21:16:26.550Z,101407.84
2023-08-22T21:18:53.017Z,101407.81
2023-08-22T21:21:19.431Z,101404.31
2023-08-22T21:23:45.837Z,101402.53
2023-08-22T21:26:12.239Z,101410.50
2023-08-22T21:28:38.686Z,101406.09
2023-08-22T21:31:05.127Z,101406.13
2023-08-22T21:33:31.676Z,101405.19
2023-08-22T21:35:58.128Z,101407.78
2023-08-22T21:38:24.693Z,101402.47
2023-08-22T21:40:51.110Z,101413.16
2023-08-22T21:43:17.551Z,101402.53
2023-08-22T21:45:43.990Z,101406.06
2023-08-22T21:48:10.456Z,101402.50
2023-08-22T21:50:36.949Z,101398.94
2023-08-22T21:53:03.646Z,101401.56
2023-08-22T21:55:30.069Z,101398.91
2023-08-22T21:57:56.499Z,101404.19
2023-08-22T22:00:22.937Z,101397.13
2023-08-22T22:02:49.704Z,101395.31
2023-08-22T22:05:16.795Z,101394.41
2023-08-22T22:07:43.210Z,101394.44
2023-08-22T22:10:09.816Z,101398.03
2023-08-22T22:12:36.332Z,101393.56
2023-08-22T22:15:02.879Z,101395.31
2023-08-22T22:17:29.336Z,101381.88
2023-08-22T22:19:55.862Z,101384.66
2023-08-22T22:22:22.279Z,101382.91
2023-08-22T22:24:48.715Z,101393.56
2023-08-22T22:27:15.113Z,101394.47
2023-08-22T22:29:41.529Z,101391.78
2023-08-22T22:32:08.047Z,101385.47
2023-08-22T22:34:34.466Z,101389.88
2023-08-22T22:37:00.873Z,101391.69
2023-08-22T22:39:27.280Z,101392.50
